Nereus — SKTD — position and weather

sailwx.info

Track history (hours):
 
Tides and Currents Weather Stations Pressure Air Temp Water Temp Dewpoint Dewpoint Depression Visibility Wind Speed Wind Dir Waves Ship Positions

Oceanographic research ship Nereus (Sweden)

Detailed information on ship capabilities available from University of Delaware's Ocean Information Center.

Last reported at 2014-Dec-05 13:30 UTC. Time now 2014-Dec-21 19:27 UTC.
Position N 58°36' E 011°05'.
Warning: this ship's position is 16 days out of date.

Length 16 m.

Type: Dredging. MMSI: 265599930.

Date/timePositionNaut miles runAvg speedWind from/ knotsBaromVisibWave heightAir tempDewpointWater temp
2014-Dec-05 13:30N 58°36' E 011°05'0 0.5
2014-Dec-05 12:32N 58°35' E 011°05'0 0.0
2014-Dec-05 11:26N 58°35' E 011°05'0 0.0
2014-Dec-05 10:32N 58°35' E 011°05'0 0.1
2014-Dec-05 09:31N 58°35' E 011°05'  
2014-Dec-01 16:24N 58°34' E 010°43'0 0.0
2014-Dec-01 14:33N 58°34' E 010°43'0 0.1
2014-Dec-01 13:28N 58°34' E 010°43'3 0.8
2014-Dec-01 09:25N 58°37' E 010°43'  
2014-Nov-28 14:07N 58°42' E 011°04'6 9.2
2014-Nov-28 13:31N 58°37' E 011°05'1 1.5
2014-Nov-28 12:32N 58°35' E 011°05'0 0.0
2014-Nov-28 11:32N 58°35' E 011°05'0 0.0
2014-Nov-28 09:30N 58°35' E 011°05'4 4.1
2014-Nov-28 08:33N 58°39' E 011°03'  
2014-Nov-25 15:05N 58°43' E 011°05'5 9.7
2014-Nov-25 14:32N 58°37' E 011°05'2 2.1
2014-Nov-25 13:33N 58°35' E 011°05'  
Track history (hours):
 
Tides and Currents Weather Stations Pressure Air Temp Water Temp Dewpoint Dewpoint Depression Visibility Wind Speed Wind Dir Waves Ship Positions

Oceanographic research ship Nereus (Sweden)

Detailed information on ship capabilities available from University of Delaware's Ocean Information Center.

Last reported at 2014-Dec-05 13:30 UTC. Time now 2014-Dec-21 19:27 UTC.
Position N 58°36' E 011°05'.
Warning: this ship's position is 16 days out of date.

Length 16 m.

Type: Dredging. MMSI: 265599930.

Date/timePositionNaut miles runAvg speedWind from/ knotsBaromVisibWave heightAir tempDewpointWater temp
2014-Dec-05 13:30N 58°36' E 011°05'0 0.5
2014-Dec-05 12:32N 58°35' E 011°05'0 0.0
2014-Dec-05 11:26N 58°35' E 011°05'0 0.0
2014-Dec-05 10:32N 58°35' E 011°05'0 0.1
2014-Dec-05 09:31N 58°35' E 011°05'  
2014-Dec-01 16:24N 58°34' E 010°43'0 0.0
2014-Dec-01 14:33N 58°34' E 010°43'0 0.1
2014-Dec-01 13:28N 58°34' E 010°43'3 0.8
2014-Dec-01 09:25N 58°37' E 010°43'  
2014-Nov-28 14:07N 58°42' E 011°04'6 9.2
2014-Nov-28 13:31N 58°37' E 011°05'1 1.5
2014-Nov-28 12:32N 58°35' E 011°05'0 0.0
2014-Nov-28 11:32N 58°35' E 011°05'0 0.0
2014-Nov-28 09:30N 58°35' E 011°05'4 4.1
2014-Nov-28 08:33N 58°39' E 011°03'  
2014-Nov-25 15:05N 58°43' E 011°05'5 9.7
2014-Nov-25 14:32N 58°37' E 011°05'2 2.1
2014-Nov-25 13:33N 58°35' E 011°05'  

Dump ship's entire track history